Time;durP1;ratioP1;P1;durP2;ratioP2;P2;SDS_P1;SDS_P2;PMS_P1;PMS_P2;Temp;Humidity;BMP_temperature;BMP_pressure;BME280_temperature;BME280_humidity;BME280_pressure;Samples;Min_cycle;Max_cycle;Signal;HPM_P1;HPM_P2
2023/11/04 00:00:11;;;;;;;15.07;9.43;;;9.20;99.90;;;;;;4128310;28;20042;-61
2023/11/04 00:02:12;;;;;;;14.63;9.07;;;9.20;99.90;;;;;;4128584;28;20537;-61
2023/11/04 00:04:13;;;;;;;12.70;8.37;;;9.20;99.90;;;;;;4127253;28;20034;-61
2023/11/04 00:06:14;;;;;;;12.97;7.13;;;9.20;99.90;;;;;;4128867;28;20038;-61
2023/11/04 00:08:15;;;;;;;12.70;7.90;;;9.20;99.90;;;;;;4127623;28;20485;-61
2023/11/04 00:10:16;;;;;;;12.53;7.60;;;9.10;99.90;;;;;;4128765;28;20026;-61
2023/11/04 00:12:18;;;;;;;11.23;7.17;;;9.10;99.90;;;;;;4127551;28;20034;-61
2023/11/04 00:14:19;;;;;;;11.30;7.73;;;9.00;99.90;;;;;;4129066;28;20104;-61
2023/11/04 00:16:20;;;;;;;11.40;7.90;;;9.00;99.90;;;;;;4127341;28;20050;-61
2023/11/04 00:18:21;;;;;;;11.60;7.40;;;9.00;99.90;;;;;;4128578;28;20100;-61
2023/11/04 00:20:22;;;;;;;10.63;7.07;;;8.90;99.90;;;;;;4131297;28;20085;-60
2023/11/04 00:22:23;;;;;;;10.47;6.77;;;8.90;99.90;;;;;;4131151;28;20046;-61
2023/11/04 00:24:24;;;;;;;11.70;6.00;;;8.80;99.90;;;;;;4131664;28;20439;-62
2023/11/04 00:26:26;;;;;;;9.87;5.77;;;8.70;99.90;;;;;;4131262;28;20038;-61
2023/11/04 00:28:28;;;;;;;11.60;5.57;;;8.60;99.90;;;;;;4132242;28;20088;-61
2023/11/04 00:30:29;;;;;;;14.10;8.97;;;8.50;99.90;;;;;;4131102;28;20026;-58
2023/11/04 00:32:30;;;;;;;13.27;8.53;;;8.50;99.90;;;;;;4131930;28;20035;-60
2023/11/04 00:34:32;;;;;;;14.20;8.33;;;8.60;99.90;;;;;;4130825;28;20039;-56
2023/11/04 00:36:34;;;;;;;16.03;10.57;;;8.50;99.90;;;;;;4132107;28;20113;-62
2023/11/04 00:38:35;;;;;;;15.93;9.23;;;8.50;99.90;;;;;;4130396;28;20104;-61
2023/11/04 00:40:36;;;;;;;16.03;8.50;;;8.50;99.90;;;;;;4131730;28;20430;-61
2023/11/04 00:42:37;;;;;;;14.80;8.83;;;8.50;99.90;;;;;;4129996;28;20043;-61
2023/11/04 00:44:38;;;;;;;18.90;11.83;;;8.60;99.90;;;;;;4131610;28;20030;-58
2023/11/04 00:46:40;;;;;;;25.10;14.33;;;8.60;99.90;;;;;;4130596;28;20038;-61
2023/11/04 00:48:41;;;;;;;17.43;11.17;;;8.60;99.90;;;;;;4130665;28;20141;-61
2023/11/04 00:50:42;;;;;;;21.50;13.03;;;8.60;99.90;;;;;;4130530;28;20034;-60
2023/11/04 00:52:43;;;;;;;20.20;13.27;;;8.60;99.90;;;;;;4130665;28;20026;-61
2023/11/04 00:54:44;;;;;;;23.20;13.37;;;8.60;99.90;;;;;;4129678;28;20042;-61
2023/11/04 00:56:45;;;;;;;18.97;12.17;;;8.70;99.90;;;;;;4130143;28;20620;-61
2023/11/04 00:58:46;;;;;;;15.50;10.03;;;8.70;99.90;;;;;;4130102;28;20038;-61
2023/11/04 01:00:47;;;;;;;18.80;11.13;;;8.80;99.90;;;;;;4130668;28;20594;-60
2023/11/04 01:02:49;;;;;;;22.53;12.63;;;8.80;99.90;;;;;;4130903;28;20104;-61
2023/11/04 01:04:50;;;;;;;21.97;12.23;;;8.90;99.90;;;;;;4129827;28;20042;-61
2023/11/04 01:06:51;;;;;;;30.27;15.10;;;8.90;99.90;;;;;;4131167;28;20027;-61
2023/11/04 01:08:52;;;;;;;23.33;12.60;;;8.80;99.90;;;;;;4129891;28;20125;-61
2023/11/04 01:10:53;;;;;;;20.33;11.23;;;8.80;99.90;;;;;;4131456;28;20034;-61
2023/11/04 01:12:54;;;;;;;15.77;9.47;;;8.90;99.90;;;;;;4130263;28;20450;-61
2023/11/04 01:14:56;;;;;;;16.70;10.67;;;8.90;99.90;;;;;;4130391;28;20047;-62
2023/11/04 01:16:57;;;;;;;21.87;12.37;;;9.00;99.90;;;;;;4130169;28;20043;-61
2023/11/04 01:18:58;;;;;;;29.33;12.60;;;8.90;99.90;;;;;;4130170;28;20043;-62
2023/11/04 01:20:59;;;;;;;32.53;13.97;;;9.00;99.90;;;;;;4130139;28;20498;-60
2023/11/04 01:23:00;;;;;;;29.30;13.23;;;8.90;99.90;;;;;;4130104;28;20546;-61
2023/11/04 01:25:02;;;;;;;51.17;14.53;;;9.00;99.90;;;;;;4129271;28;20549;-61
2023/11/04 01:27:07;;;;;;;54.50;17.70;;;9.00;99.90;;;;;;4130018;28;20062;-61
2023/11/04 01:29:10;;;;;;;37.37;16.40;;;9.00;99.90;;;;;;4130944;28;20077;-60
2023/11/04 01:31:11;;;;;;;41.27;15.23;;;9.00;99.90;;;;;;4128675;28;20097;-62
2023/11/04 01:33:12;;;;;;;49.63;14.10;;;9.00;99.90;;;;;;4130982;28;20096;-59
2023/11/04 01:35:13;;;;;;;55.60;16.43;;;9.00;99.90;;;;;;4129446;28;20046;-61
2023/11/04 01:37:14;;;;;;;72.63;16.70;;;9.00;99.90;;;;;;4130974;28;20061;-62
2023/11/04 01:39:16;;;;;;;77.33;15.67;;;9.00;99.90;;;;;;4130321;28;20081;-61
2023/11/04 01:41:17;;;;;;;58.10;15.70;;;8.90;99.90;;;;;;4131099;28;20164;-58
2023/11/04 01:43:25;;;;;;;64.03;15.63;;;8.90;99.90;;;;;;4129707;28;20085;-60
2023/11/04 01:45:27;;;;;;;65.47;16.50;;;8.80;99.90;;;;;;4131041;28;20089;-62
2023/11/04 01:47:28;;;;;;;65.70;16.30;;;8.80;99.90;;;;;;4129840;28;20026;-62
2023/11/04 01:49:29;;;;;;;66.03;16.87;;;8.80;99.90;;;;;;4129346;28;20116;-62
2023/11/04 01:51:31;;;;;;;118.47;18.87;;;8.80;99.90;;;;;;4129655;28;20391;-62
2023/11/04 01:53:33;;;;;;;85.23;20.17;;;8.70;99.90;;;;;;4130078;28;20081;-61
2023/11/04 01:55:35;;;;;;;70.87;18.50;;;8.70;99.90;;;;;;4129430;28;20084;-62
2023/11/04 01:57:36;;;;;;;51.60;19.13;;;8.70;99.90;;;;;;4129107;28;20849;-62
2023/11/04 01:59:38;;;;;;;74.67;21.10;;;8.70;99.90;;;;;;4130246;28;20077;-60
2023/11/04 02:01:41;;;;;;;75.07;22.93;;;8.70;99.90;;;;;;4129046;28;20069;-61
2023/11/04 02:03:43;;;;;;;71.90;20.47;;;8.70;99.90;;;;;;4130258;28;20031;-62
2023/11/04 02:05:44;;;;;;;59.27;19.10;;;8.60;99.90;;;;;;4129303;28;20569;-61
2023/11/04 02:07:45;;;;;;;38.70;17.60;;;8.50;99.90;;;;;;4130399;28;20034;-62
2023/11/04 02:09:47;;;;;;;38.77;18.73;;;8.50;99.90;;;;;;4129025;28;20095;-61
2023/11/04 02:11:48;;;;;;;41.57;18.53;;;8.40;99.90;;;;;;4130503;28;20128;-61
2023/11/04 02:13:49;;;;;;;47.60;19.07;;;8.40;99.90;;;;;;4128985;28;20356;-61
2023/11/04 02:15:51;;;;;;;40.40;19.37;;;8.40;99.90;;;;;;4130322;28;20553;-60
2023/11/04 02:17:52;;;;;;;36.67;18.53;;;8.40;99.90;;;;;;4128966;28;20483;-61
2023/11/04 02:20:00;;;;;;;33.30;16.23;;;8.40;99.90;;;;;;4130493;28;20085;-62
2023/11/04 02:22:01;;;;;;;32.87;16.87;;;8.30;99.90;;;;;;4129055;28;20026;-60
2023/11/04 02:24:02;;;;;;;33.30;17.00;;;8.30;99.90;;;;;;4129474;28;20073;-61
2023/11/04 02:26:03;;;;;;;28.00;16.00;;;8.30;99.90;;;;;;4129148;28;20046;-62
2023/11/04 02:28:05;;;;;;;27.67;15.37;;;8.30;99.90;;;;;;4129738;28;20050;-59
2023/11/04 02:30:07;;;;;;;30.17;16.23;;;8.40;99.90;;;;;;4129410;28;20069;-61
2023/11/04 02:32:08;;;;;;;31.10;15.90;;;8.40;99.90;;;;;;4128698;28;20038;-61
2023/11/04 02:34:09;;;;;;;38.30;17.37;;;8.50;99.90;;;;;;4129680;28;20034;-61
2023/11/04 02:36:10;;;;;;;37.13;18.17;;;8.50;99.90;;;;;;4128243;28;20066;-62
2023/11/04 02:38:12;;;;;;;65.17;13.90;;;8.50;99.90;;;;;;4130229;28;20503;-61
2023/11/04 02:40:13;;;;;;;50.63;16.67;;;8.50;99.90;;;;;;4128159;28;20042;-61
2023/11/04 02:42:15;;;;;;;68.50;14.53;;;8.40;99.90;;;;;;4129369;28;20046;-62
2023/11/04 02:44:16;;;;;;;50.50;16.17;;;8.40;99.90;;;;;;4127125;28;20026;-62
2023/11/04 02:46:17;;;;;;;37.50;13.37;;;8.30;99.90;;;;;;4128709;28;20081;-61
2023/11/04 02:48:18;;;;;;;61.00;13.63;;;8.30;99.90;;;;;;4127395;28;20086;-62
2023/11/04 02:50:20;;;;;;;50.90;15.13;;;8.20;99.90;;;;;;4129351;28;20031;-62
2023/11/04 02:52:21;;;;;;;61.00;16.37;;;8.20;99.90;;;;;;4128644;28;20080;-61
2023/11/04 02:54:22;;;;;;;55.07;16.97;;;8.20;99.90;;;;;;4129210;28;20084;-62
2023/11/04 02:56:23;;;;;;;33.73;15.00;;;8.20;99.90;;;;;;4127852;28;20120;-62
2023/11/04 02:58:24;;;;;;;36.30;14.53;;;8.20;99.90;;;;;;4122113;28;20529;-59
2023/11/04 03:00:25;;;;;;;73.60;15.77;;;8.20;99.90;;;;;;4128855;28;20530;-62
2023/11/04 03:02:26;;;;;;;69.60;16.60;;;8.20;99.90;;;;;;4128747;28;20116;-61
2023/11/04 03:04:28;;;;;;;70.10;16.60;;;8.20;99.90;;;;;;4129209;28;20054;-58
2023/11/04 03:06:29;;;;;;;59.87;17.13;;;8.10;99.90;;;;;;4128122;28;21031;-62
2023/11/04 03:08:31;;;;;;;119.43;19.13;;;8.20;99.90;;;;;;4129459;28;20487;-62
2023/11/04 03:10:32;;;;;;;71.47;18.70;;;8.10;99.90;;;;;;4128036;28;20023;-62
2023/11/04 03:12:34;;;;;;;77.27;19.07;;;8.10;99.90;;;;;;4129304;28;20082;-61
2023/11/04 03:14:35;;;;;;;68.03;17.10;;;8.20;99.90;;;;;;4128137;28;20038;-62
2023/11/04 03:16:37;;;;;;;49.00;17.17;;;8.20;99.90;;;;;;4128976;28;20046;-62
2023/11/04 03:18:38;;;;;;;55.30;18.53;;;8.20;99.90;;;;;;4128420;28;20046;-62
2023/11/04 03:20:39;;;;;;;96.43;19.73;;;8.20;99.90;;;;;;4129287;28;20180;-59
2023/11/04 03:22:41;;;;;;;82.07;19.73;;;8.20;99.90;;;;;;4126935;28;20046;-62
2023/11/04 03:24:45;;;;;;;38.47;17.23;;;8.20;99.90;;;;;;4128837;28;20034;-62
2023/11/04 03:26:47;;;;;;;43.47;17.80;;;8.20;99.90;;;;;;4127012;28;20030;-61
2023/11/04 03:28:48;;;;;;;51.07;19.63;;;8.30;99.90;;;;;;4128857;28;20447;-61
2023/11/04 03:30:49;;;;;;;58.23;19.87;;;8.40;99.90;;;;;;4127435;28;20042;-61
2023/11/04 03:32:50;;;;;;;56.33;20.67;;;8.40;99.90;;;;;;4128277;28;20026;-61
2023/11/04 03:34:51;;;;;;;62.17;21.60;;;8.40;99.90;;;;;;4128280;28;20042;-61
2023/11/04 03:36:53;;;;;;;69.23;20.67;;;8.50;99.90;;;;;;4128332;28;20050;-60
2023/11/04 03:38:54;;;;;;;95.23;21.57;;;8.50;99.90;;;;;;4129035;28;20100;-61
2023/11/04 03:40:55;;;;;;;88.93;22.70;;;8.50;99.90;;;;;;4127753;28;20046;-62
2023/11/04 03:42:56;;;;;;;62.63;20.60;;;8.40;99.90;;;;;;4128598;28;20080;-61
2023/11/04 03:44:57;;;;;;;85.90;22.80;;;8.40;99.90;;;;;;4128175;28;20177;-60
2023/11/04 03:46:58;;;;;;;95.77;21.87;;;8.40;99.90;;;;;;4129133;28;20104;-62
2023/11/04 03:49:00;;;;;;;67.90;21.37;;;8.30;99.90;;;;;;4128099;28;20092;-61
2023/11/04 03:51:01;;;;;;;67.60;21.90;;;8.30;99.90;;;;;;4128108;28;20046;-62
2023/11/04 03:53:02;;;;;;;74.63;21.67;;;8.30;99.90;;;;;;4127655;28;20026;-61
2023/11/04 03:55:03;;;;;;;93.73;22.33;;;8.30;99.90;;;;;;4128790;28;20046;-62
2023/11/04 03:57:05;;;;;;;125.33;24.27;;;8.20;99.90;;;;;;4126552;28;20058;-62
2023/11/04 03:59:06;;;;;;;98.43;22.50;;;8.30;99.90;;;;;;4128386;28;20046;-60
2023/11/04 04:01:07;;;;;;;98.27;23.10;;;8.30;99.90;;;;;;4127251;28;20097;-61
2023/11/04 04:03:08;;;;;;;75.90;21.47;;;8.30;99.90;;;;;;4127903;28;20034;-62
2023/11/04 04:05:10;;;;;;;71.23;21.00;;;8.20;99.90;;;;;;4128497;28;20405;-61
2023/11/04 04:07:12;;;;;;;92.20;22.27;;;8.30;99.90;;;;;;4127449;28;20041;-62
2023/11/04 04:09:13;;;;;;;66.47;20.03;;;8.30;99.90;;;;;;4128161;28;20090;-62
2023/11/04 04:11:20;;;;;;;79.80;23.30;;;8.30;99.90;;;;;;4127481;28;20034;-61
2023/11/04 04:13:21;;;;;;;55.07;21.77;;;8.30;99.90;;;;;;4128819;28;20077;-61
2023/11/04 04:15:22;;;;;;;60.97;19.73;;;8.30;99.90;;;;;;4127353;28;20085;-62
2023/11/04 04:17:24;;;;;;;59.30;18.67;;;8.40;99.90;;;;;;4128627;28;20042;-62
2023/11/04 04:19:26;;;;;;;58.40;19.70;;;8.40;99.90;;;;;;4127119;28;20104;-61
2023/11/04 04:21:27;;;;;;;52.77;17.37;;;8.40;99.90;;;;;;4128667;28;20042;-61
2023/11/04 04:23:28;;;;;;;60.23;19.20;;;8.50;99.90;;;;;;4127033;28;20434;-61
2023/11/04 04:25:29;;;;;;;53.37;17.13;;;8.50;99.90;;;;;;4128360;28;20050;-61
2023/11/04 04:27:31;;;;;;;47.90;16.53;;;8.50;99.90;;;;;;4127468;28;20042;-63
2023/11/04 04:29:32;;;;;;;46.40;15.37;;;8.50;99.90;;;;;;4128409;28;20372;-61
2023/11/04 04:31:33;;;;;;;59.93;17.23;;;8.60;99.90;;;;;;4127450;28;20089;-62
2023/11/04 04:33:34;;;;;;;44.37;15.33;;;8.60;99.90;;;;;;4128272;28;20100;-61
2023/11/04 04:35:36;;;;;;;54.73;15.30;;;8.70;99.90;;;;;;4128119;28;20088;-62
2023/11/04 04:37:38;;;;;;;45.13;14.63;;;8.70;99.90;;;;;;4127327;28;20533;-61
2023/11/04 04:39:39;;;;;;;42.50;13.90;;;8.70;99.90;;;;;;4128167;28;20042;-61
2023/11/04 04:41:40;;;;;;;35.87;13.20;;;8.70;99.90;;;;;;4127610;28;20054;-62
2023/11/04 04:43:41;;;;;;;36.90;12.93;;;8.70;99.90;;;;;;4127975;28;20101;-61
2023/11/04 04:45:43;;;;;;;30.77;11.90;;;8.80;99.90;;;;;;4127130;28;20446;-61
2023/11/04 04:47:44;;;;;;;34.33;13.47;;;8.80;99.90;;;;;;4128657;28;20046;-61
2023/11/04 04:49:47;;;;;;;29.53;12.00;;;8.80;99.90;;;;;;4127393;28;20030;-61
2023/11/04 04:51:48;;;;;;;28.10;11.90;;;8.80;99.90;;;;;;4128305;28;20092;-61
2023/11/04 04:53:49;;;;;;;28.13;11.27;;;8.80;99.90;;;;;;4127181;28;20047;-62
2023/11/04 04:55:53;;;;;;;35.00;12.13;;;8.80;99.90;;;;;;4127426;28;20030;-62
2023/11/04 04:57:55;;;;;;;29.77;11.57;;;8.80;99.90;;;;;;4127022;28;20112;-62
2023/11/04 04:59:56;;;;;;;24.33;10.60;;;8.80;99.90;;;;;;4128637;28;20038;-62
2023/11/04 05:01:57;;;;;;;44.00;11.50;;;8.70;99.90;;;;;;4126082;28;20149;-61
2023/11/04 05:03:58;;;;;;;35.50;13.37;;;8.70;99.90;;;;;;4128403;28;20046;-62
2023/11/04 05:05:59;;;;;;;37.00;12.97;;;8.70;99.90;;;;;;4128180;28;20434;-62
2023/11/04 05:08:00;;;;;;;37.43;13.57;;;8.70;99.90;;;;;;4129760;28;20046;-58
2023/11/04 05:10:02;;;;;;;33.70;13.33;;;8.60;99.90;;;;;;4130874;28;20118;-61
2023/11/04 05:12:03;;;;;;;36.03;11.77;;;8.70;99.90;;;;;;4129184;28;20038;-62
2023/11/04 05:14:04;;;;;;;80.93;13.20;;;8.60;99.90;;;;;;4114855;28;20102;-61
2023/11/04 05:16:06;;;;;;;35.57;11.37;;;8.70;99.90;;;;;;4113548;28;20325;-62
2023/11/04 05:18:07;;;;;;;31.47;10.50;;;8.60;99.90;;;;;;4123853;28;20046;-62
2023/11/04 05:20:09;;;;;;;58.27;12.37;;;8.70;99.90;;;;;;4129351;28;20093;-61
2023/11/04 05:22:10;;;;;;;34.13;10.47;;;8.60;99.90;;;;;;4130949;28;20050;-61
2023/11/04 05:24:11;;;;;;;44.77;10.23;;;8.60;99.90;;;;;;4129844;28;20030;-62
2023/11/04 05:26:13;;;;;;;51.07;20.30;;;8.60;99.90;;;;;;4130951;28;20096;-61
2023/11/04 05:28:15;;;;;;;43.67;12.40;;;8.60;99.90;;;;;;4129949;28;20026;-62
2023/11/04 05:30:16;;;;;;;38.07;11.40;;;8.60;99.90;;;;;;4131085;28;20046;-62
2023/11/04 05:32:17;;;;;;;48.07;10.80;;;8.60;99.90;;;;;;4129889;28;20105;-61
2023/11/04 05:34:18;;;;;;;25.23;10.57;;;8.60;99.90;;;;;;4130217;28;20112;-57
2023/11/04 05:36:20;;;;;;;25.77;10.77;;;8.60;99.90;;;;;;4129998;28;20046;-61
2023/11/04 05:38:23;;;;;;;30.07;13.27;;;8.70;99.90;;;;;;4130053;28;20026;-62
2023/11/04 05:40:24;;;;;;;28.10;11.60;;;8.70;99.90;;;;;;4130118;28;20077;-62
2023/11/04 05:42:26;;;;;;;36.73;11.43;;;8.80;99.90;;;;;;4129654;28;20042;-61
2023/11/04 05:44:27;;;;;;;92.53;15.73;;;8.80;99.90;;;;;;4130494;28;20038;-62
2023/11/04 05:46:28;;;;;;;55.93;13.47;;;8.80;99.90;;;;;;4129717;28;20038;-60
2023/11/04 05:48:29;;;;;;;43.00;12.93;;;8.80;99.90;;;;;;4130242;28;20506;-61
2023/11/04 05:50:30;;;;;;;47.17;16.03;;;8.80;99.90;;;;;;4129312;28;20495;-61
2023/11/04 05:52:32;;;;;;;76.20;14.47;;;8.80;99.90;;;;;;4129315;28;20042;-61
2023/11/04 05:54:33;;;;;;;57.27;14.47;;;8.80;99.90;;;;;;4129459;28;20038;-64
2023/11/04 05:56:34;;;;;;;61.23;14.57;;;8.80;99.90;;;;;;4129838;28;20038;-60
2023/11/04 05:58:35;;;;;;;54.43;13.80;;;8.80;99.90;;;;;;4129683;28;20399;-61
2023/11/04 06:00:36;;;;;;;59.57;15.30;;;8.90;99.90;;;;;;4129458;28;20088;-62
2023/11/04 06:02:41;;;;;;;44.40;13.67;;;8.90;99.90;;;;;;4127790;28;20096;-61
2023/11/04 06:04:43;;;;;;;62.77;13.53;;;8.90;99.90;;;;;;4130711;28;20030;-62
2023/11/04 06:06:44;;;;;;;82.63;14.53;;;8.90;99.90;;;;;;4128948;28;20034;-59
2023/11/04 06:08:45;;;;;;;37.23;12.67;;;8.90;99.90;;;;;;4129160;28;20034;-60
2023/11/04 06:10:46;;;;;;;35.67;12.63;;;8.90;99.90;;;;;;4129561;28;20030;-61
2023/11/04 06:12:47;;;;;;;32.37;13.30;;;9.00;99.90;;;;;;4129200;28;20034;-61
2023/11/04 06:14:48;;;;;;;44.13;14.13;;;9.10;99.90;;;;;;4129845;28;20034;-61
2023/11/04 06:16:50;;;;;;;34.27;12.87;;;9.10;99.90;;;;;;4128315;28;20431;-60
2023/11/04 06:18:51;;;;;;;55.93;12.97;;;9.10;99.90;;;;;;4130244;28;20069;-60
2023/11/04 06:20:52;;;;;;;40.93;13.87;;;9.20;99.90;;;;;;4129292;28;20034;-62
2023/11/04 06:22:53;;;;;;;33.37;12.93;;;9.30;99.90;;;;;;4130112;28;20080;-62
2023/11/04 06:24:55;;;;;;;51.30;13.47;;;9.30;99.90;;;;;;4129268;28;20034;-63
2023/11/04 06:26:56;;;;;;;45.30;13.17;;;9.30;99.90;;;;;;4129772;28;20110;-62
2023/11/04 06:28:57;;;;;;;30.70;12.20;;;9.30;99.90;;;;;;4128804;28;20034;-62
2023/11/04 06:30:58;;;;;;;30.53;12.10;;;9.30;99.90;;;;;;4129830;28;20434;-60
2023/11/04 06:32:59;;;;;;;38.20;11.47;;;9.30;99.90;;;;;;4128502;28;20081;-59
2023/11/04 06:35:01;;;;;;;55.60;12.87;;;9.30;99.90;;;;;;4129944;28;20081;-61
2023/11/04 06:37:05;;;;;;;31.10;11.00;;;9.30;99.90;;;;;;4128778;28;20498;-59
2023/11/04 06:39:06;;;;;;;30.80;12.20;;;9.40;99.90;;;;;;4128797;28;20030;-61
2023/11/04 06:41:16;;;;;;;36.30;12.00;;;9.40;99.90;;;;;;4112763;28;20027;-61
2023/11/04 06:43:17;;;;;;;41.25;13.13;;;9.40;99.90;;;;;;4125917;28;20042;-61
2023/11/04 06:45:19;;;;;;;44.10;12.67;;;9.40;99.90;;;;;;4128771;28;20503;-60
2023/11/04 06:47:22;;;;;;;26.90;11.97;;;9.40;99.90;;;;;;4128549;28;20046;-62
2023/11/04 06:49:23;;;;;;;38.73;11.87;;;9.40;99.90;;;;;;4128923;28;20394;-59
2023/11/04 06:51:25;;;;;;;44.20;12.03;;;9.40;99.90;;;;;;4128338;28;20038;-61
2023/11/04 06:53:27;;;;;;;36.07;12.50;;;9.40;99.90;;;;;;4129093;28;20038;-60
2023/11/04 06:55:30;;;;;;;41.20;11.53;;;9.40;99.90;;;;;;4128138;28;20104;-61
2023/11/04 06:57:33;;;;;;;27.07;11.67;;;9.40;99.90;;;;;;4129090;28;20042;-60
2023/11/04 06:59:36;;;;;;;51.23;10.60;;;9.40;99.90;;;;;;4128469;28;20455;-61
2023/11/04 07:01:38;;;;;;;23.07;10.77;;;9.30;99.90;;;;;;4128547;28;20097;-61
2023/11/04 07:03:39;;;;;;;27.10;10.20;;;9.30;99.90;;;;;;4126720;28;20026;-60
2023/11/04 07:05:40;;;;;;;38.23;10.70;;;9.30;99.90;;;;;;4129627;28;20050;-60
2023/11/04 07:07:42;;;;;;;57.27;11.40;;;9.30;99.90;;;;;;4126971;28;20035;-62
2023/11/04 07:09:43;;;;;;;32.60;9.90;;;9.30;99.90;;;;;;4128041;28;20465;-60
2023/11/04 07:11:44;;;;;;;20.03;8.63;;;9.30;99.90;;;;;;4127303;28;20061;-61
2023/11/04 07:13:46;;;;;;;22.80;10.33;;;9.30;99.90;;;;;;4128795;28;20422;-61
2023/11/04 07:15:47;;;;;;;24.73;10.70;;;9.40;99.90;;;;;;4127707;28;20089;-61
2023/11/04 07:17:48;;;;;;;20.67;9.57;;;9.40;99.90;;;;;;4127922;28;20065;-60
2023/11/04 07:19:49;;;;;;;21.63;10.33;;;9.50;99.90;;;;;;4128540;28;20506;-61
2023/11/04 07:21:50;;;;;;;23.33;10.17;;;9.50;99.90;;;;;;4128131;28;20075;-61
2023/11/04 07:23:51;;;;;;;21.83;10.20;;;9.60;99.90;;;;;;4128969;28;20038;-61
2023/11/04 07:25:53;;;;;;;17.67;9.67;;;9.50;99.90;;;;;;4125111;28;20426;-60
2023/11/04 07:27:55;;;;;;;21.10;10.00;;;9.50;99.90;;;;;;4127129;28;20100;-58
2023/11/04 07:29:56;;;;;;;19.33;9.37;;;9.50;99.90;;;;;;4126457;28;20038;-62
2023/11/04 07:31:57;;;;;;;21.13;9.80;;;9.60;99.90;;;;;;4128392;28;20030;-61
2023/11/04 07:33:58;;;;;;;22.13;9.77;;;9.60;99.90;;;;;;4127542;28;20088;-62
2023/11/04 07:35:59;;;;;;;18.83;9.17;;;9.50;99.90;;;;;;4127157;28;20088;-60
2023/11/04 07:38:01;;;;;;;23.83;10.47;;;9.50;99.90;;;;;;4136269;28;20042;-60
2023/11/04 07:40:03;;;;;;;21.17;10.40;;;9.60;99.90;;;;;;4144820;28;20726;-60
2023/11/04 07:42:05;;;;;;;27.00;11.73;;;9.70;99.90;;;;;;4144027;28;20560;-60
2023/11/04 07:44:06;;;;;;;22.27;9.97;;;9.70;99.90;;;;;;4144854;28;20096;-60
2023/11/04 07:46:08;;;;;;;24.43;11.90;;;9.70;99.90;;;;;;4130061;28;20077;-59
2023/11/04 07:48:09;;;;;;;24.50;10.43;;;9.70;99.90;;;;;;4127763;28;20034;-61
2023/11/04 07:50:12;;;;;;;23.87;10.97;;;9.70;99.90;;;;;;4127713;28;21023;-61
2023/11/04 07:52:13;;;;;;;27.00;10.77;;;9.70;99.90;;;;;;4127483;28;20402;-62
2023/11/04 07:54:14;;;;;;;29.40;14.20;;;9.60;99.90;;;;;;4124845;28;20018;-64
2023/11/04 07:56:16;;;;;;;38.93;16.80;;;9.60;99.90;;;;;;4127385;28;20034;-62
2023/11/04 07:58:18;;;;;;;48.97;21.47;;;9.50;99.90;;;;;;4127932;28;20050;-63
2023/11/04 08:00:19;;;;;;;51.70;20.37;;;9.40;99.90;;;;;;4126956;28;20092;-61
2023/11/04 08:02:20;;;;;;;59.87;23.13;;;9.40;99.90;;;;;;4127598;28;20043;-60
2023/11/04 08:04:24;;;;;;;56.43;21.10;;;9.40;99.90;;;;;;4127057;28;20046;-62
2023/11/04 08:06:26;;;;;;;63.37;23.23;;;9.40;99.90;;;;;;4127564;28;20108;-61
2023/11/04 08:08:27;;;;;;;117.23;25.10;;;9.40;99.90;;;;;;4125498;28;20148;-64
2023/11/04 08:10:28;;;;;;;84.80;26.60;;;9.40;99.90;;;;;;4127915;28;20034;-61
2023/11/04 08:12:30;;;;;;;167.20;36.03;;;9.30;99.90;;;;;;4127602;28;20034;-61
2023/11/04 08:14:31;;;;;;;132.87;27.40;;;9.20;99.90;;;;;;4127735;28;20097;-61
2023/11/04 08:16:32;;;;;;;191.43;24.90;;;9.20;99.90;;;;;;4126949;28;20188;-61
2023/11/04 08:18:34;;;;;;;131.90;22.70;;;9.20;99.90;;;;;;4127303;28;20108;-63
2023/11/04 08:20:35;;;;;;;159.83;20.37;;;9.20;99.90;;;;;;4126436;28;20057;-62
2023/11/04 08:22:39;;;;;;;73.30;17.50;;;9.10;99.90;;;;;;4127257;28;20073;-61
2023/11/04 08:24:40;;;;;;;108.57;20.07;;;9.10;99.90;;;;;;4127704;28;20104;-61
2023/11/04 08:26:42;;;;;;;75.40;16.73;;;9.00;99.90;;;;;;4127578;28;20042;-65
2023/11/04 08:28:43;;;;;;;85.10;17.90;;;9.00;99.90;;;;;;4126579;28;20094;-62
2023/11/04 08:30:44;;;;;;;54.70;18.07;;;9.00;99.90;;;;;;4125622;28;20446;-61
2023/11/04 08:32:46;;;;;;;57.40;18.33;;;9.10;99.90;;;;;;4128046;28;20463;-64
2023/11/04 08:34:47;;;;;;;59.83;18.47;;;9.10;99.90;;;;;;4126948;28;20026;-61
2023/11/04 08:36:48;;;;;;;80.90;18.10;;;9.10;99.90;;;;;;4128244;28;20435;-61
2023/11/04 08:38:50;;;;;;;126.37;18.50;;;9.10;99.90;;;;;;4124749;28;20093;-62
2023/11/04 08:40:51;;;;;;;92.43;19.70;;;9.10;99.90;;;;;;4128472;28;20927;-61
2023/11/04 08:42:52;;;;;;;86.13;19.67;;;9.10;99.90;;;;;;4130317;28;20038;-62
2023/11/04 08:44:54;;;;;;;62.33;18.57;;;9.10;99.90;;;;;;4131510;28;20058;-63
2023/11/04 08:46:56;;;;;;;56.73;19.00;;;9.10;99.90;;;;;;4129949;28;20077;-62
2023/11/04 08:48:57;;;;;;;43.80;19.47;;;9.20;99.90;;;;;;4130868;28;20030;-62
2023/11/04 08:50:58;;;;;;;51.83;20.83;;;9.20;99.90;;;;;;4130538;28;20053;-62
2023/11/04 08:52:59;;;;;;;82.20;21.53;;;9.20;99.90;;;;;;4130402;28;20037;-62
2023/11/04 08:55:03;;;;;;;55.37;22.23;;;9.20;99.90;;;;;;4130695;28;20092;-63
2023/11/04 08:57:05;;;;;;;49.83;21.50;;;9.20;99.90;;;;;;4129832;28;20050;-61
2023/11/04 08:59:06;;;;;;;71.00;21.87;;;9.20;99.90;;;;;;4130556;28;20513;-62
2023/11/04 09:01:07;;;;;;;61.27;21.87;;;9.30;99.90;;;;;;4129637;28;20050;-60
2023/11/04 09:03:08;;;;;;;58.53;22.97;;;9.30;99.90;;;;;;4130871;28;20084;-61
2023/11/04 09:05:10;;;;;;;60.17;23.87;;;9.40;99.90;;;;;;4129951;28;20081;-61
2023/11/04 09:07:11;;;;;;;54.90;22.47;;;9.50;99.90;;;;;;4129943;28;20065;-61
2023/11/04 09:09:12;;;;;;;60.70;23.37;;;9.70;99.90;;;;;;4129724;28;20022;-60
2023/11/04 09:11:13;;;;;;;51.27;21.60;;;9.80;99.90;;;;;;4130855;28;20426;-61
2023/11/04 09:13:14;;;;;;;49.40;21.73;;;9.90;99.90;;;;;;4129708;28;20057;-61
2023/11/04 09:15:15;;;;;;;52.47;21.03;;;10.00;99.90;;;;;;4130979;28;20422;-61
2023/11/04 09:17:17;;;;;;;60.27;23.37;;;10.10;99.90;;;;;;4129282;28;20062;-60
2023/11/04 09:19:18;;;;;;;63.97;23.80;;;10.20;99.90;;;;;;4130180;28;20034;-61
2023/11/04 09:21:19;;;;;;;58.33;21.33;;;10.20;99.90;;;;;;4128208;28;20034;-61
2023/11/04 09:23:21;;;;;;;62.30;23.63;;;10.30;99.90;;;;;;4128071;28;20042;-61
2023/11/04 09:25:23;;;;;;;56.43;20.77;;;10.30;99.90;;;;;;4129376;28;21512;-61
2023/11/04 09:27:24;;;;;;;55.83;20.50;;;10.30;99.90;;;;;;4129448;28;20038;-63
2023/11/04 09:29:25;;;;;;;64.20;23.13;;;10.40;99.90;;;;;;4129689;28;20068;-60
2023/11/04 09:31:26;;;;;;;59.67;20.90;;;10.40;99.90;;;;;;4129246;28;20034;-59
2023/11/04 09:33:29;;;;;;;58.00;21.27;;;10.40;99.90;;;;;;4129445;28;20447;-62
2023/11/04 09:35:30;;;;;;;59.87;21.63;;;10.50;99.90;;;;;;4129272;28;20517;-63
2023/11/04 09:37:32;;;;;;;63.87;23.07;;;10.50;99.90;;;;;;4130619;28;20093;-62
2023/11/04 09:39:33;;;;;;;54.30;21.53;;;10.60;99.90;;;;;;4142771;28;20117;-62
2023/11/04 09:41:36;;;;;;;55.30;20.43;;;10.60;99.90;;;;;;4131424;28;20450;-61
2023/11/04 09:43:37;;;;;;;55.97;21.63;;;10.60;99.90;;;;;;4129194;28;20081;-62
2023/11/04 09:45:39;;;;;;;42.13;20.10;;;10.70;99.90;;;;;;4129157;28;20061;-60
2023/11/04 09:47:40;;;;;;;45.77;20.00;;;10.80;99.90;;;;;;4128788;28;20123;-61
2023/11/04 09:49:41;;;;;;;38.60;18.63;;;10.80;99.90;;;;;;4129323;28;20097;-62
2023/11/04 09:51:43;;;;;;;42.07;18.97;;;10.80;99.90;;;;;;4129014;28;20419;-62
2023/11/04 09:54:03;;;;;;;41.80;19.53;;;10.80;99.90;;;;;;4129758;28;20097;-63
2023/11/04 09:56:06;;;;;;;41.75;19.30;;;10.80;99.90;;;;;;4129389;28;20053;-63
2023/11/04 09:58:08;;;;;;;38.97;18.67;;;10.80;99.90;;;;;;4129580;28;20112;-63
2023/11/04 10:00:10;;;;;;;53.43;22.43;;;10.70;99.90;;;;;;4129353;28;20031;-62
2023/11/04 10:02:12;;;;;;;52.33;21.27;;;10.70;99.90;;;;;;4129444;28;20022;-63
2023/11/04 10:04:13;;;;;;;53.23;22.80;;;10.70;99.90;;;;;;4130015;28;20046;-63
2023/11/04 10:06:18;;;;;;;54.60;24.77;;;10.70;99.90;;;;;;4128958;28;20479;-63
2023/11/04 10:08:19;;;;;;;61.13;27.27;;;10.80;99.90;;;;;;4129400;28;20034;-63
2023/11/04 10:10:20;;;;;;;62.20;29.10;;;10.80;99.90;;;;;;4129088;28;20501;-63
2023/11/04 10:12:21;;;;;;;59.73;26.77;;;10.80;99.90;;;;;;4130065;28;20042;-62
2023/11/04 10:14:23;;;;;;;68.17;32.33;;;10.70;99.90;;;;;;4127683;28;20100;-64
2023/11/04 10:16:24;;;;;;;67.33;29.60;;;10.60;99.90;;;;;;4129625;28;20018;-64
2023/11/04 10:18:27;;;;;;;70.23;31.67;;;10.60;99.90;;;;;;4128395;28;20388;-62
2023/11/04 10:20:28;;;;;;;60.80;30.13;;;10.60;99.90;;;;;;4128736;28;20034;-62
2023/11/04 10:22:29;;;;;;;51.93;28.33;;;10.60;99.90;;;;;;4128742;28;20046;-63